Overview Statistics Trail Chart Weather Telemetry Raw packets
 

This is the latest recevied weather packets stored in our database for station/object N5XJB. If no packets are shown the sender has not sent any weather packets the latest 10 day(s).

<< 2 3 4 5 6 7 8 >>
Time Temp. Humidity Pressure Rain* Wind** Luminosity Snow
1788550237 29.44° C 75% 1014.8 hPa 0 mm - 919 W/m² -
1788549936 28.89° C 81% 1014.8 hPa 0 mm - 762 W/m² -
1788549632 27.78° C 86% 1015.1 hPa 0 mm - 686 W/m² -
1788549328 27.78° C 87% 1015.1 hPa 0 mm - 440 W/m² -
1788549025 27.22° C 88% 1015.1 hPa 0 mm - 661 W/m² -
1788548720 26.67° C 89% 1015.4 hPa 0 mm - 307 W/m² -
1788548416 26.67° C 90% 1015.4 hPa 0 mm - 203 W/m² -
1788548112 26.67° C 90% 1015.8 hPa 0.25 mm - 181 W/m² -
1788547806 26.11° C 90% 1015.4 hPa 0.25 mm - 178 W/m² -
1788547501 26.11° C 90% 1015.8 hPa 0.25 mm - 191 W/m² -
1788547196 26.11° C 91% 1015.8 hPa 0.25 mm - 190 W/m² -
1788546891 26.11° C 91% 1015.8 hPa 0.25 mm - 154 W/m² -
1788546586 26.11° C 91% 1015.8 hPa 0.25 mm - 140 W/m² -
1788546282 26.11° C 91% 1015.8 hPa 0.25 mm - 141 W/m² -
1788545982 25.56° C 90% 1016.1 hPa 0.25 mm - 150 W/m² -
1788545678 26.11° C 91% 1016.1 hPa 0.25 mm - 156 W/m² -
1788545372 25.56° C 90% 1016.5 hPa 0.25 mm - 167 W/m² -
1788545067 25.56° C 89% 1016.8 hPa 0.25 mm - 165 W/m² -
1788544767 26.11° C 89% 1016.5 hPa 0 mm - 155 W/m² -
1788544466 26.11° C 87% 1016.1 hPa 0 mm - 176 W/m² -
1788544160 26.11° C 87% 1016.1 hPa 0 mm - 171 W/m² -
1788543855 26.11° C 86% 1016.5 hPa 0 mm - 144 W/m² -
1788543552 26.11° C 85% 1016.5 hPa 0 mm - 108 W/m² -
1788543247 26.67° C 83% 1016.5 hPa 0 mm - 89 W/m² -
1788542943 26.67° C 83% 1016.1 hPa 0 mm - 69 W/m² -

* Rain latest hour (hover to see other rain measurements)
** Current wind speed in m/s (hover to see current wind gust speed)